createdAt,value
2023-05-10T00:00:58.232Z,10.68
2023-05-10T00:03:25.559Z,10.67
2023-05-10T00:05:52.804Z,10.47
2023-05-10T00:08:20.071Z,10.33
2023-05-10T00:10:47.139Z,10.46
2023-05-10T00:13:14.477Z,10.63
2023-05-10T00:15:41.618Z,10.68
2023-05-10T00:18:08.980Z,10.76
2023-05-10T00:20:36.227Z,10.79
2023-05-10T00:23:03.381Z,10.77
2023-05-10T00:25:30.426Z,10.70
2023-05-10T00:27:58.354Z,10.58
2023-05-10T00:30:25.678Z,10.59
2023-05-10T00:32:53.102Z,10.71
2023-05-10T00:35:20.517Z,10.79
2023-05-10T00:37:48.910Z,10.71
2023-05-10T00:40:16.313Z,10.71
2023-05-10T00:42:47.699Z,10.65
2023-05-10T00:45:14.864Z,10.58
2023-05-10T00:47:42.117Z,10.62
2023-05-10T00:50:10.365Z,10.58
2023-05-10T00:52:37.555Z,10.54
2023-05-10T00:55:23.891Z,10.54
2023-05-10T00:57:51.455Z,10.52
2023-05-10T01:00:19.743Z,10.42
2023-05-10T01:02:47.862Z,10.53
2023-05-10T01:05:15.181Z,10.54
2023-05-10T01:07:42.390Z,10.42
2023-05-10T01:10:11.643Z,10.09
2023-05-10T01:12:41.813Z,9.96
2023-05-10T01:15:11.965Z,10.01
2023-05-10T01:17:42.024Z,10.24
2023-05-10T01:20:11.303Z,10.43
2023-05-10T01:22:56.779Z,10.56
2023-05-10T01:25:48.696Z,10.47
2023-05-10T01:28:46.668Z,10.31
2023-05-10T01:31:44.424Z,10.25
2023-05-10T01:34:19.813Z,10.19
2023-05-10T01:36:52.377Z,10.21
2023-05-10T01:39:31.440Z,10.30
2023-05-10T01:42:09.321Z,10.43
2023-05-10T01:44:51.531Z,10.57
2023-05-10T01:47:26.628Z,10.65
2023-05-10T01:49:56.459Z,10.70
2023-05-10T01:52:51.167Z,10.63
2023-05-10T01:55:22.146Z,10.53
2023-05-10T01:58:00.057Z,10.43
2023-05-10T02:00:28.326Z,10.35
2023-05-10T02:02:56.536Z,10.36
2023-05-10T02:05:25.358Z,10.44
2023-05-10T02:07:54.116Z,10.60
2023-05-10T02:10:22.044Z,10.72
2023-05-10T02:12:50.527Z,10.71
2023-05-10T02:15:22.420Z,10.73
2023-05-10T02:17:50.849Z,10.73
2023-05-10T02:20:20.284Z,10.77
2023-05-10T02:22:51.818Z,10.87
2023-05-10T02:25:20.480Z,10.89
2023-05-10T02:27:49.408Z,10.86
2023-05-10T02:30:18.088Z,10.89
2023-05-10T02:32:46.204Z,10.85
2023-05-10T02:35:13.985Z,10.85
2023-05-10T02:37:43.098Z,10.86
2023-05-10T02:40:12.129Z,10.83
2023-05-10T02:42:43.436Z,10.83
2023-05-10T02:45:14.543Z,10.89
2023-05-10T02:47:44.846Z,10.75
2023-05-10T02:50:12.469Z,10.88
2023-05-10T02:52:48.799Z,10.84
2023-05-10T02:55:17.982Z,10.82
2023-05-10T02:57:52.056Z,10.84
2023-05-10T03:00:19.513Z,10.84
2023-05-10T03:02:46.613Z,10.93
2023-05-10T03:05:13.721Z,10.95
2023-05-10T03:07:40.903Z,10.94
2023-05-10T03:10:09.017Z,11.05
2023-05-10T03:12:56.890Z,11.10
2023-05-10T03:15:30.296Z,11.14
2023-05-10T03:18:10.748Z,11.19
2023-05-10T03:20:49.530Z,11.25
2023-05-10T03:23:25.416Z,11.27
2023-05-10T03:25:53.463Z,11.21
2023-05-10T03:28:22.190Z,11.32
2023-05-10T03:30:50.870Z,11.36
2023-05-10T03:33:18.085Z,11.40
2023-05-10T03:35:47.397Z,11.41
2023-05-10T03:38:15.484Z,11.49
2023-05-10T03:40:42.571Z,11.56
2023-05-10T03:43:09.689Z,11.63
2023-05-10T03:45:37.371Z,11.69
2023-05-10T03:48:05.252Z,11.75
2023-05-10T03:50:32.469Z,11.79
2023-05-10T03:52:59.551Z,11.84
2023-05-10T03:55:28.192Z,11.90
2023-05-10T03:57:55.361Z,11.94
2023-05-10T04:00:23.505Z,11.95
2023-05-10T04:02:54.609Z,11.95
2023-05-10T04:05:21.805Z,11.88
2023-05-10T04:07:50.402Z,11.90
2023-05-10T04:10:18.098Z,11.91
2023-05-10T04:12:47.104Z,11.94
2023-05-10T04:15:14.488Z,11.98
2023-05-10T04:17:41.718Z,12.03
2023-05-10T04:20:09.521Z,12.12
2023-05-10T04:22:36.902Z,12.15
2023-05-10T04:25:04.269Z,12.10
2023-05-10T04:27:32.217Z,12.22
2023-05-10T04:29:59.440Z,12.27
2023-05-10T04:32:26.594Z,12.34
2023-05-10T04:34:54.192Z,12.37
2023-05-10T04:37:22.485Z,12.23
2023-05-10T04:39:49.591Z,12.29
2023-05-10T04:42:16.758Z,12.39
2023-05-10T04:44:44.732Z,12.58
2023-05-10T04:47:12.936Z,12.69
2023-05-10T04:49:40.289Z,12.58
2023-05-10T04:52:07.408Z,12.74
2023-05-10T04:54:35.609Z,12.79
2023-05-10T04:57:02.658Z,12.67
2023-05-10T04:59:29.708Z,12.84
2023-05-10T05:01:56.849Z,12.94
2023-05-10T05:04:25.163Z,12.95
2023-05-10T05:06:53.929Z,13.24
2023-05-10T05:09:21.376Z,13.16
2023-05-10T05:11:48.558Z,13.23
2023-05-10T05:14:15.698Z,13.39
2023-05-10T05:16:42.855Z,13.54
2023-05-10T05:19:09.984Z,13.51
2023-05-10T05:21:37.276Z,13.30
2023-05-10T05:24:04.858Z,13.38
2023-05-10T05:26:31.964Z,13.51
2023-05-10T05:28:59.025Z,13.63
2023-05-10T05:31:26.203Z,13.74
2023-05-10T05:33:53.473Z,13.81
2023-05-10T05:36:20.582Z,13.73
2023-05-10T05:38:47.706Z,13.89
2023-05-10T05:41:14.956Z,13.82
2023-05-10T05:43:42.048Z,13.67
2023-05-10T05:46:09.206Z,13.74
2023-05-10T05:48:36.552Z,13.89
2023-05-10T05:51:05.147Z,13.92
2023-05-10T05:53:33.684Z,14.11
2023-05-10T05:56:00.794Z,13.95
2023-05-10T05:58:28.034Z,13.83
2023-05-10T06:00:55.221Z,13.74
2023-05-10T06:03:22.525Z,13.83
2023-05-10T06:05:49.806Z,14.16
2023-05-10T06:08:16.899Z,14.30
2023-05-10T06:10:44.286Z,14.27
2023-05-10T06:13:11.843Z,14.43
2023-05-10T06:15:39.421Z,14.56
2023-05-10T06:18:07.250Z,14.18
2023-05-10T06:20:34.513Z,14.06
2023-05-10T06:23:01.761Z,14.46
2023-05-10T06:25:29.086Z,14.60
2023-05-10T06:27:58.871Z,14.50
2023-05-10T06:30:29.875Z,14.36
2023-05-10T06:32:58.242Z,14.53
2023-05-10T06:35:25.786Z,14.65
2023-05-10T06:37:53.356Z,14.51
2023-05-10T06:40:20.777Z,14.88
2023-05-10T06:42:49.139Z,15.18
2023-05-10T06:45:17.125Z,15.22
2023-05-10T06:47:44.762Z,15.32
2023-05-10T06:50:12.831Z,15.18
2023-05-10T06:52:40.339Z,14.93
2023-05-10T06:55:09.427Z,15.16
2023-05-10T06:57:36.592Z,15.32
2023-05-10T07:00:08.017Z,15.40
2023-05-10T07:02:35.425Z,15.31
2023-05-10T07:05:03.649Z,15.59
2023-05-10T07:07:32.656Z,15.82
2023-05-10T07:09:59.898Z,15.58
2023-05-10T07:12:27.220Z,15.45
2023-05-10T07:14:54.558Z,15.32
2023-05-10T07:17:21.683Z,15.74
2023-05-10T07:19:48.827Z,16.09
2023-05-10T07:22:16.558Z,16.08
2023-05-10T07:24:43.927Z,15.68
2023-05-10T07:27:11.018Z,15.83
2023-05-10T07:29:38.611Z,15.59
2023-05-10T07:32:06.973Z,15.47
2023-05-10T07:34:34.189Z,15.45
2023-05-10T07:37:01.913Z,16.13
2023-05-10T07:39:29.126Z,16.03
2023-05-10T07:41:56.909Z,16.12
2023-05-10T07:44:24.493Z,16.19
2023-05-10T07:46:51.863Z,16.18
2023-05-10T07:49:19.079Z,16.18
2023-05-10T07:51:46.224Z,16.45
2023-05-10T07:54:13.838Z,16.32
2023-05-10T07:56:46.064Z,16.22
2023-05-10T07:59:17.023Z,16.49
2023-05-10T08:01:44.639Z,16.29
2023-05-10T08:04:12.699Z,16.27
2023-05-10T08:06:40.751Z,16.20
2023-05-10T08:09:08.106Z,16.57
2023-05-10T08:11:35.471Z,16.54
2023-05-10T08:14:02.840Z,16.51
2023-05-10T08:16:30.167Z,16.66
2023-05-10T08:18:57.493Z,16.64
2023-05-10T08:21:24.695Z,16.88
2023-05-10T08:23:51.904Z,17.05
2023-05-10T08:26:19.014Z,16.60
2023-05-10T08:28:46.120Z,16.61
2023-05-10T08:31:13.289Z,16.87
2023-05-10T08:33:42.168Z,17.14
2023-05-10T08:36:10.210Z,16.91
2023-05-10T08:38:38.684Z,16.70
2023-05-10T08:41:07.244Z,16.60
2023-05-10T08:43:37.733Z,16.18
2023-05-10T08:46:06.599Z,16.18
2023-05-10T08:48:35.906Z,16.72
2023-05-10T08:51:04.825Z,16.85
2023-05-10T08:53:36.480Z,17.31
2023-05-10T08:56:04.758Z,17.39
2023-05-10T08:58:32.239Z,16.75
2023-05-10T09:01:00.483Z,16.94
2023-05-10T09:03:27.860Z,17.54
2023-05-10T09:05:56.914Z,17.80
2023-05-10T09:08:27.900Z,18.13
2023-05-10T09:10:58.151Z,18.52
2023-05-10T09:13:26.199Z,17.71
2023-05-10T09:15:54.824Z,16.96
2023-05-10T09:18:22.002Z,16.84
2023-05-10T09:20:50.292Z,17.10
2023-05-10T09:23:17.529Z,17.63
2023-05-10T09:25:44.557Z,17.65
2023-05-10T09:28:12.951Z,16.83
2023-05-10T09:30:40.507Z,16.91
2023-05-10T09:33:08.133Z,17.15
2023-05-10T09:35:35.427Z,17.45
2023-05-10T09:38:05.299Z,17.71
2023-05-10T09:40:33.034Z,17.71
2023-05-10T09:43:07.009Z,17.39
2023-05-10T09:45:38.298Z,17.70
2023-05-10T09:48:07.167Z,17.47
2023-05-10T09:50:35.379Z,17.86
2023-05-10T09:53:04.956Z,18.15
2023-05-10T09:55:45.904Z,18.20
2023-05-10T09:58:15.346Z,17.60
2023-05-10T10:00:53.266Z,18.01
2023-05-10T10:03:23.844Z,18.20
2023-05-10T10:05:51.463Z,18.34
2023-05-10T10:08:18.808Z,18.51
2023-05-10T10:10:47.261Z,18.51
2023-05-10T10:13:16.826Z,18.45
2023-05-10T10:15:45.675Z,17.79
2023-05-10T10:18:18.417Z,17.94
2023-05-10T10:20:46.728Z,17.37
2023-05-10T10:23:15.872Z,16.92
2023-05-10T10:25:46.370Z,17.23
2023-05-10T10:28:48.449Z,17.30
2023-05-10T10:31:32.527Z,17.82
2023-05-10T10:34:05.013Z,18.07
2023-05-10T10:36:34.349Z,18.26
2023-05-10T10:39:03.971Z,18.43
2023-05-10T10:41:35.088Z,18.23
2023-05-10T10:44:24.716Z,17.86
2023-05-10T10:47:25.253Z,17.45
2023-05-10T10:49:55.660Z,17.39
2023-05-10T10:52:31.074Z,17.83
2023-05-10T10:55:07.276Z,17.96
2023-05-10T10:58:01.183Z,18.20
2023-05-10T11:00:37.414Z,18.04
2023-05-10T11:03:09.604Z,17.75
2023-05-10T11:05:44.642Z,17.57
2023-05-10T11:08:17.793Z,17.77
2023-05-10T11:11:09.994Z,18.06
2023-05-10T11:13:46.670Z,17.88
2023-05-10T11:16:16.874Z,17.68
2023-05-10T11:19:00.991Z,17.81
2023-05-10T11:21:28.273Z,18.03
2023-05-10T11:23:57.754Z,18.13
2023-05-10T11:26:36.303Z,18.22
2023-05-10T11:29:05.577Z,17.43
2023-05-10T11:31:32.973Z,17.70
2023-05-10T11:34:02.873Z,17.72
2023-05-10T11:36:37.450Z,17.74
2023-05-10T11:39:06.419Z,17.93
2023-05-10T11:41:34.009Z,17.87
2023-05-10T11:44:01.176Z,17.67
2023-05-10T11:46:29.628Z,17.96
2023-05-10T11:49:02.951Z,18.21
2023-05-10T11:51:30.315Z,18.07
2023-05-10T11:53:58.255Z,18.35
2023-05-10T11:56:27.370Z,18.13
2023-05-10T11:58:57.051Z,18.15
2023-05-10T12:01:26.234Z,18.26
2023-05-10T12:03:55.321Z,18.14
2023-05-10T12:06:22.973Z,17.88
2023-05-10T12:08:54.786Z,17.93
2023-05-10T12:11:26.638Z,18.33
2023-05-10T12:13:54.823Z,17.97
2023-05-10T12:16:26.738Z,17.61
2023-05-10T12:18:56.916Z,17.62
2023-05-10T12:21:25.527Z,17.54
2023-05-10T12:23:59.991Z,18.10
2023-05-10T12:26:30.145Z,18.15
2023-05-10T12:29:14.102Z,18.33
2023-05-10T12:31:51.576Z,18.18
2023-05-10T12:34:32.653Z,17.49
2023-05-10T12:37:00.052Z,17.29
2023-05-10T12:39:27.780Z,17.28
2023-05-10T12:41:54.897Z,17.63
2023-05-10T12:44:22.046Z,17.94
2023-05-10T12:46:49.165Z,17.80
2023-05-10T12:49:16.471Z,17.59
2023-05-10T12:51:43.840Z,17.77
2023-05-10T12:54:10.973Z,17.83
2023-05-10T12:56:38.214Z,17.54
2023-05-10T12:59:05.728Z,17.58
2023-05-10T13:01:32.942Z,17.20
2023-05-10T13:04:01.233Z,17.35
2023-05-10T13:06:28.366Z,17.37
2023-05-10T13:08:55.596Z,17.18
2023-05-10T13:11:22.774Z,17.20
2023-05-10T13:13:49.872Z,17.18
2023-05-10T13:16:17.362Z,17.45
2023-05-10T13:18:44.553Z,17.45
2023-05-10T13:21:12.395Z,17.43
2023-05-10T13:23:39.484Z,17.65
2023-05-10T13:26:06.625Z,17.56
2023-05-10T13:28:33.703Z,17.38
2023-05-10T13:31:01.168Z,17.47
2023-05-10T13:33:28.328Z,17.32
2023-05-10T13:35:55.922Z,17.30
2023-05-10T13:38:23.165Z,17.66
2023-05-10T13:40:53.767Z,17.94
2023-05-10T13:43:21.214Z,18.18
2023-05-10T13:45:48.513Z,18.04
2023-05-10T13:48:15.757Z,18.00
2023-05-10T13:50:44.322Z,18.17
2023-05-10T13:53:11.408Z,18.14
2023-05-10T13:55:38.520Z,17.99
2023-05-10T13:58:05.732Z,18.00
2023-05-10T14:00:33.041Z,17.90
2023-05-10T14:03:00.300Z,17.94
2023-05-10T14:05:28.032Z,17.87
2023-05-10T14:07:55.380Z,17.82
2023-05-10T14:10:22.724Z,17.93
2023-05-10T14:12:51.350Z,17.94
2023-05-10T14:15:18.817Z,17.99
2023-05-10T14:17:46.247Z,17.81
2023-05-10T14:20:13.384Z,17.53
2023-05-10T14:22:41.543Z,17.01
2023-05-10T14:25:09.595Z,17.22
2023-05-10T14:27:36.723Z,17.42
2023-05-10T14:30:04.143Z,17.54
2023-05-10T14:32:33.320Z,17.53
2023-05-10T14:35:00.865Z,17.44
2023-05-10T14:37:28.093Z,17.41
2023-05-10T14:39:55.237Z,17.53
2023-05-10T14:42:22.442Z,17.38
2023-05-10T14:44:49.784Z,17.15
2023-05-10T14:47:16.887Z,17.41
2023-05-10T14:49:43.972Z,17.35
2023-05-10T14:52:13.412Z,17.28
2023-05-10T14:54:41.358Z,17.31
2023-05-10T14:57:08.528Z,17.30
2023-05-10T14:59:35.768Z,17.37
2023-05-10T15:02:04.265Z,17.30
2023-05-10T15:04:31.981Z,17.39
2023-05-10T15:07:00.565Z,17.29
2023-05-10T15:09:28.838Z,17.42
2023-05-10T15:11:56.876Z,17.11
2023-05-10T15:14:24.404Z,17.04
2023-05-10T15:16:51.516Z,17.09
2023-05-10T15:19:18.682Z,17.23
2023-05-10T15:21:46.151Z,17.48
2023-05-10T15:24:13.369Z,17.37
2023-05-10T15:26:40.495Z,17.42
2023-05-10T15:29:07.649Z,17.35
2023-05-10T15:31:37.689Z,17.31
2023-05-10T15:34:04.925Z,17.06
2023-05-10T15:36:33.218Z,17.00
2023-05-10T15:39:00.611Z,16.70
2023-05-10T15:41:27.907Z,16.81
2023-05-10T15:43:55.222Z,16.76
2023-05-10T15:46:22.688Z,16.75
2023-05-10T15:48:50.005Z,16.83
2023-05-10T15:51:17.153Z,16.89
2023-05-10T15:53:56.481Z,17.04
2023-05-10T15:56:31.436Z,16.80
2023-05-10T15:58:58.590Z,16.78
2023-05-10T16:01:26.153Z,16.83
2023-05-10T16:03:53.319Z,16.81
2023-05-10T16:06:20.497Z,16.76
2023-05-10T16:08:47.722Z,16.73
2023-05-10T16:11:14.775Z,16.58
2023-05-10T16:13:41.833Z,16.47
2023-05-10T16:16:09.387Z,16.56
2023-05-10T16:18:36.910Z,16.59
2023-05-10T16:21:04.468Z,16.74
2023-05-10T16:23:31.671Z,16.61
2023-05-10T16:25:58.869Z,16.56
2023-05-10T16:28:26.091Z,16.67
2023-05-10T16:30:53.371Z,16.63
2023-05-10T16:33:20.832Z,16.67
2023-05-10T16:35:47.980Z,16.50
2023-05-10T16:38:15.203Z,16.59
2023-05-10T16:40:42.377Z,16.52
2023-05-10T16:43:09.555Z,16.62
2023-05-10T16:45:36.771Z,16.54
2023-05-10T16:48:04.104Z,16.48
2023-05-10T16:50:31.511Z,16.59
2023-05-10T16:52:58.855Z,16.56
2023-05-10T16:55:26.534Z,16.51
2023-05-10T16:57:59.762Z,16.56
2023-05-10T17:00:27.563Z,16.52
2023-05-10T17:02:55.098Z,16.50
2023-05-10T17:05:22.935Z,16.50
2023-05-10T17:07:50.604Z,16.42
2023-05-10T17:10:18.156Z,16.46
2023-05-10T17:12:45.897Z,16.44
2023-05-10T17:15:13.348Z,16.42
2023-05-10T17:17:40.684Z,16.39
2023-05-10T17:20:08.599Z,16.34
2023-05-10T17:22:36.047Z,16.29
2023-05-10T17:25:04.290Z,16.25
2023-05-10T17:27:32.244Z,16.23
2023-05-10T17:29:59.743Z,16.14
2023-05-10T17:32:27.220Z,16.15
2023-05-10T17:34:54.457Z,16.16
2023-05-10T17:37:21.844Z,16.04
2023-05-10T17:39:48.997Z,16.09
2023-05-10T17:42:19.128Z,16.05
2023-05-10T17:44:46.411Z,16.03
2023-05-10T17:47:13.534Z,15.98
2023-05-10T17:49:40.872Z,15.93
2023-05-10T17:52:08.181Z,15.83
2023-05-10T17:54:35.533Z,15.75
2023-05-10T17:57:03.730Z,15.66
2023-05-10T17:59:30.958Z,15.58
2023-05-10T18:01:58.155Z,15.51
2023-05-10T18:04:26.146Z,15.48
2023-05-10T18:07:01.194Z,15.39
2023-05-10T18:09:29.232Z,15.46
2023-05-10T18:11:56.586Z,15.46
2023-05-10T18:14:39.042Z,15.43
2023-05-10T18:17:09.260Z,15.44
2023-05-10T18:19:36.637Z,15.46
2023-05-10T18:22:03.732Z,15.53
2023-05-10T18:24:39.013Z,15.57
2023-05-10T18:27:08.968Z,15.61
2023-05-10T18:29:37.125Z,15.55
2023-05-10T18:32:04.664Z,15.38
2023-05-10T18:34:31.847Z,15.34
2023-05-10T18:36:59.722Z,15.32
2023-05-10T18:39:26.927Z,15.37
2023-05-10T18:41:54.122Z,15.37
2023-05-10T18:44:23.295Z,15.40
2023-05-10T18:46:54.118Z,15.40
2023-05-10T18:49:21.586Z,15.40
2023-05-10T18:51:48.788Z,15.40
2023-05-10T18:54:15.878Z,15.37
2023-05-10T18:56:45.309Z,15.31
2023-05-10T18:59:13.125Z,15.30
2023-05-10T19:01:43.403Z,15.27
2023-05-10T19:04:10.570Z,15.31
2023-05-10T19:06:37.670Z,15.30
2023-05-10T19:09:04.989Z,15.23
2023-05-10T19:11:34.488Z,15.23
2023-05-10T19:14:02.673Z,15.24
2023-05-10T19:16:30.561Z,15.11
2023-05-10T19:18:58.149Z,15.17
2023-05-10T19:21:25.450Z,15.05
2023-05-10T19:23:53.712Z,15.14
2023-05-10T19:26:22.113Z,15.11
2023-05-10T19:28:52.783Z,15.04
2023-05-10T19:31:20.449Z,15.13
2023-05-10T19:33:47.707Z,15.08
2023-05-10T19:36:15.083Z,15.08
2023-05-10T19:38:42.283Z,14.91
2023-05-10T19:41:09.459Z,14.99
2023-05-10T19:43:39.908Z,15.00
2023-05-10T19:46:07.127Z,14.94
2023-05-10T19:48:34.199Z,14.91
2023-05-10T19:51:07.831Z,14.92
2023-05-10T19:53:36.663Z,14.90
2023-05-10T19:56:05.458Z,14.91
2023-05-10T19:58:34.149Z,14.93
2023-05-10T20:01:01.747Z,14.93
2023-05-10T20:03:29.276Z,14.82
2023-05-10T20:05:56.425Z,14.70
2023-05-10T20:08:23.499Z,14.75
2023-05-10T20:10:50.832Z,14.79
2023-05-10T20:13:18.092Z,14.80
2023-05-10T20:15:46.238Z,14.79
2023-05-10T20:18:13.415Z,14.78
2023-05-10T20:20:40.829Z,14.82
2023-05-10T20:23:07.935Z,14.84
2023-05-10T20:25:35.638Z,14.81
2023-05-10T20:28:03.104Z,14.73
2023-05-10T20:30:30.188Z,14.77
2023-05-10T20:32:57.425Z,14.78
2023-05-10T20:35:24.552Z,14.73
2023-05-10T20:37:51.671Z,14.75
2023-05-10T20:40:19.059Z,14.78
2023-05-10T20:42:47.696Z,14.75
2023-05-10T20:45:16.035Z,14.72
2023-05-10T20:47:43.344Z,14.70
2023-05-10T20:50:11.517Z,14.68
2023-05-10T20:52:38.630Z,14.49
2023-05-10T20:55:06.476Z,14.43
2023-05-10T20:57:33.606Z,14.44
2023-05-10T21:00:00.842Z,14.47
2023-05-10T21:02:29.137Z,14.50
2023-05-10T21:04:57.872Z,14.56
2023-05-10T21:07:25.558Z,14.55
2023-05-10T21:09:52.745Z,14.44
2023-05-10T21:12:19.938Z,14.49
2023-05-10T21:14:47.906Z,14.50
2023-05-10T21:17:15.102Z,14.51
2023-05-10T21:19:44.106Z,14.49
2023-05-10T21:22:11.227Z,14.50
2023-05-10T21:24:38.285Z,14.51
2023-05-10T21:27:07.559Z,14.49
2023-05-10T21:29:34.898Z,14.51
2023-05-10T21:32:02.095Z,14.49
2023-05-10T21:34:29.601Z,14.39
2023-05-10T21:36:56.727Z,14.33
2023-05-10T21:39:23.917Z,14.36
2023-05-10T21:41:51.070Z,14.37
2023-05-10T21:44:18.196Z,14.39
2023-05-10T21:46:45.496Z,14.33
2023-05-10T21:49:12.582Z,14.22
2023-05-10T21:51:39.728Z,14.19
2023-05-10T21:54:06.961Z,13.93
2023-05-10T21:56:34.063Z,13.76
2023-05-10T21:59:01.188Z,14.04
2023-05-10T22:01:28.374Z,14.11
2023-05-10T22:03:55.679Z,14.18
2023-05-10T22:06:22.740Z,14.12
2023-05-10T22:08:49.803Z,14.12
2023-05-10T22:11:16.868Z,14.00
2023-05-10T22:13:44.015Z,14.24
2023-05-10T22:16:11.244Z,14.33
2023-05-10T22:18:38.687Z,14.33
2023-05-10T22:21:05.829Z,14.31
2023-05-10T22:23:33.045Z,14.30
2023-05-10T22:26:02.682Z,14.27
2023-05-10T22:28:30.479Z,14.24
2023-05-10T22:30:57.653Z,14.16
2023-05-10T22:33:24.762Z,14.01
2023-05-10T22:35:52.382Z,13.99
2023-05-10T22:38:19.603Z,14.03
2023-05-10T22:40:46.712Z,14.04
2023-05-10T22:43:13.795Z,14.01
2023-05-10T22:45:40.867Z,14.03
2023-05-10T22:48:09.507Z,14.06
2023-05-10T22:50:37.194Z,13.89
2023-05-10T22:53:04.348Z,13.71
2023-05-10T22:55:31.471Z,13.69
2023-05-10T22:57:58.903Z,13.62
2023-05-10T23:00:26.419Z,13.54
2023-05-10T23:02:54.512Z,13.59
2023-05-10T23:05:21.790Z,13.55
2023-05-10T23:07:53.239Z,13.53
2023-05-10T23:10:20.968Z,13.40
2023-05-10T23:12:48.240Z,13.38
2023-05-10T23:15:15.565Z,13.34
2023-05-10T23:17:43.635Z,13.32
2023-05-10T23:20:11.680Z,13.43
2023-05-10T23:22:38.832Z,13.45
2023-05-10T23:25:06.395Z,13.51
2023-05-10T23:27:33.693Z,13.65
2023-05-10T23:30:00.811Z,13.77
2023-05-10T23:32:27.974Z,13.81
2023-05-10T23:34:55.071Z,13.69
2023-05-10T23:37:22.159Z,13.75
2023-05-10T23:39:49.307Z,13.67
2023-05-10T23:42:16.563Z,13.61
2023-05-10T23:44:43.732Z,13.71
2023-05-10T23:47:10.815Z,13.58
2023-05-10T23:49:38.250Z,13.54
2023-05-10T23:52:05.347Z,13.55
2023-05-10T23:54:32.374Z,13.46
2023-05-10T23:56:59.579Z,13.48
2023-05-10T23:59:27.081Z,13.43
